createdAt,value
2023-05-10T00:00:18.984Z,5.80
2023-05-10T00:02:45.887Z,6.14
2023-05-10T00:05:46.727Z,6.48
2023-05-10T00:08:13.371Z,6.02
2023-05-10T00:10:40.037Z,5.70
2023-05-10T00:13:06.690Z,5.49
2023-05-10T00:18:24.381Z,6.51
2023-05-10T00:20:51.210Z,5.97
2023-05-10T00:23:17.892Z,5.43
2023-05-10T00:25:44.520Z,6.13
2023-05-10T00:28:11.116Z,6.34
2023-05-10T00:30:37.961Z,6.56
2023-05-10T00:33:04.818Z,4.94
2023-05-10T00:35:31.677Z,6.45
2023-05-10T00:37:58.259Z,6.18
2023-05-10T00:40:25.004Z,6.43
2023-05-10T00:42:51.606Z,6.41
2023-05-10T00:45:18.514Z,6.11
2023-05-10T00:47:45.180Z,4.73
2023-05-10T00:50:11.806Z,6.13
2023-05-10T00:52:38.433Z,5.76
2023-05-10T00:55:05.572Z,6.55
2023-05-10T00:57:32.190Z,6.47
2023-05-10T00:59:59.021Z,6.21
2023-05-10T01:02:25.987Z,6.30
2023-05-10T01:04:53.008Z,6.22
2023-05-10T01:07:19.870Z,6.23
2023-05-10T01:09:46.631Z,5.77
2023-05-10T01:12:13.279Z,5.05
2023-05-10T01:14:39.995Z,6.02
2023-05-10T01:17:07.223Z,6.09
2023-05-10T01:19:35.904Z,5.57
2023-05-10T01:22:17.610Z,6.39
2023-05-10T01:25:07.731Z,6.31
2023-05-10T01:27:55.667Z,6.23
2023-05-10T01:30:28.289Z,6.19
2023-05-10T01:33:22.907Z,6.14
2023-05-10T01:36:05.288Z,5.61
2023-05-10T01:38:51.528Z,6.11
2023-05-10T01:41:29.243Z,5.98
2023-05-10T01:44:02.286Z,6.09
2023-05-10T01:46:34.130Z,6.06
2023-05-10T01:49:01.062Z,6.02
2023-05-10T01:51:30.393Z,5.22
2023-05-10T01:54:00.411Z,5.93
2023-05-10T01:56:27.654Z,5.64
2023-05-10T01:58:54.321Z,5.46
2023-05-10T02:01:21.830Z,5.05
2023-05-10T02:03:49.071Z,3.81
2023-05-10T02:06:15.894Z,5.57
2023-05-10T02:08:42.653Z,5.69
2023-05-10T02:11:09.251Z,5.36
2023-05-10T02:13:35.865Z,5.91
2023-05-10T02:16:02.471Z,5.60
2023-05-10T02:18:29.256Z,5.25
2023-05-10T02:20:56.131Z,6.14
2023-05-10T02:23:22.707Z,6.11
2023-05-10T02:25:49.383Z,4.65
2023-05-10T02:28:16.105Z,5.91
2023-05-10T02:30:43.064Z,5.42
2023-05-10T02:33:09.692Z,5.89
2023-05-10T02:35:36.345Z,5.86
2023-05-10T02:38:03.067Z,5.09
2023-05-10T02:40:29.731Z,5.99
2023-05-10T02:42:57.389Z,5.15
2023-05-10T02:45:25.933Z,6.04
2023-05-10T02:47:52.572Z,4.33
2023-05-10T02:50:19.953Z,4.79
2023-05-10T02:52:53.091Z,5.75
2023-05-10T02:55:21.021Z,5.79
2023-05-10T02:57:51.353Z,5.70
2023-05-10T03:00:18.490Z,6.18
2023-05-10T03:02:45.526Z,5.61
2023-05-10T03:05:12.372Z,5.89
2023-05-10T03:07:39.011Z,6.23
2023-05-10T03:10:06.444Z,5.94
2023-05-10T03:12:35.112Z,5.84
2023-05-10T03:15:22.499Z,5.93
2023-05-10T03:18:11.712Z,6.19
2023-05-10T03:20:49.547Z,5.47
2023-05-10T03:23:19.255Z,6.39
2023-05-10T03:25:46.334Z,4.81
2023-05-10T03:28:13.101Z,6.19
2023-05-10T03:30:39.689Z,4.78
2023-05-10T03:33:07.350Z,5.97
2023-05-10T03:35:34.108Z,6.00
2023-05-10T03:38:01.211Z,5.74
2023-05-10T03:40:30.076Z,6.24
2023-05-10T03:42:56.781Z,6.33
2023-05-10T03:45:23.791Z,5.38
2023-05-10T03:47:50.422Z,4.95
2023-05-10T03:50:17.302Z,6.56
2023-05-10T03:52:44.627Z,6.18
2023-05-10T03:55:11.504Z,6.48
2023-05-10T03:57:38.258Z,5.21
2023-05-10T04:00:05.375Z,6.36
2023-05-10T04:02:32.071Z,6.61
2023-05-10T04:04:59.070Z,6.80
2023-05-10T04:07:25.670Z,6.19
2023-05-10T04:09:52.456Z,6.60
2023-05-10T04:12:19.107Z,6.61
2023-05-10T04:14:45.792Z,7.00
2023-05-10T04:17:12.453Z,6.65
2023-05-10T04:19:39.372Z,7.19
2023-05-10T04:22:05.991Z,6.35
2023-05-10T04:24:32.608Z,7.05
2023-05-10T04:26:59.231Z,7.06
2023-05-10T04:29:25.866Z,7.05
2023-05-10T04:31:52.518Z,7.27
2023-05-10T04:34:19.640Z,7.40
2023-05-10T04:36:46.237Z,7.68
2023-05-10T04:39:12.956Z,7.12
2023-05-10T04:41:39.734Z,7.60
2023-05-10T04:44:06.385Z,8.47
2023-05-10T04:46:33.142Z,8.54
2023-05-10T04:48:59.875Z,9.11
2023-05-10T04:51:26.482Z,9.44
2023-05-10T04:54:05.345Z,10.79
2023-05-10T04:56:32.984Z,12.52
2023-05-10T04:58:59.565Z,14.08
2023-05-10T05:01:26.224Z,15.78
2023-05-10T05:03:54.085Z,16.50
2023-05-10T05:06:22.265Z,19.17
2023-05-10T05:08:50.532Z,20.70
2023-05-10T05:11:17.811Z,21.76
2023-05-10T05:13:44.608Z,23.08
2023-05-10T05:16:12.278Z,24.20
2023-05-10T05:18:39.248Z,25.05
2023-05-10T05:21:17.905Z,26.20
2023-05-10T05:23:44.610Z,26.75
2023-05-10T05:26:11.735Z,27.13
2023-05-10T05:28:38.829Z,27.70
2023-05-10T05:31:06.752Z,27.89
2023-05-10T05:33:33.459Z,28.60
2023-05-10T05:36:06.957Z,28.35
2023-05-10T05:38:33.633Z,28.77
2023-05-10T05:41:00.313Z,29.12
2023-05-10T05:43:26.979Z,29.80
2023-05-10T05:45:54.735Z,29.60
2023-05-10T05:48:21.706Z,29.45
2023-05-10T05:50:48.490Z,30.61
2023-05-10T05:53:15.225Z,31.43
2023-05-10T05:55:41.866Z,31.65
2023-05-10T05:58:08.474Z,32.07
2023-05-10T06:00:35.290Z,32.47
2023-05-10T06:03:02.139Z,32.77
2023-05-10T06:05:28.921Z,32.76
2023-05-10T06:07:55.531Z,33.08
2023-05-10T06:10:22.170Z,33.32
2023-05-10T06:12:48.825Z,33.91
2023-05-10T06:15:15.632Z,34.06
2023-05-10T06:17:42.459Z,34.40
2023-05-10T06:20:09.774Z,34.57
2023-05-10T06:22:36.516Z,35.18
2023-05-10T06:25:03.638Z,35.05
2023-05-10T06:27:30.257Z,35.18
2023-05-10T06:30:09.281Z,35.57
2023-05-10T06:32:39.532Z,35.85
2023-05-10T06:35:06.714Z,35.97
2023-05-10T06:37:33.394Z,36.00
2023-05-10T06:40:00.044Z,36.22
2023-05-10T06:42:26.686Z,36.46
2023-05-10T06:44:53.303Z,36.53
2023-05-10T06:47:19.939Z,36.55
2023-05-10T06:49:46.579Z,37.09
2023-05-10T06:52:13.300Z,37.12
2023-05-10T06:54:39.932Z,36.55
2023-05-10T06:57:16.149Z,35.68
2023-05-10T06:59:50.335Z,35.85
2023-05-10T07:02:17.642Z,35.49
2023-05-10T07:04:44.388Z,34.89
2023-05-10T07:07:11.127Z,34.24
2023-05-10T07:09:37.724Z,33.98
2023-05-10T07:12:04.796Z,34.01
2023-05-10T07:14:31.467Z,33.44
2023-05-10T07:16:58.128Z,30.73
2023-05-10T07:19:24.854Z,29.26
2023-05-10T07:21:51.879Z,29.62
2023-05-10T07:24:18.700Z,27.73
2023-05-10T07:26:45.296Z,27.29
2023-05-10T07:29:11.913Z,25.98
2023-05-10T07:31:38.759Z,24.80
2023-05-10T07:34:05.755Z,23.92
2023-05-10T07:36:32.359Z,22.45
2023-05-10T07:38:58.970Z,22.22
2023-05-10T07:41:25.601Z,20.91
2023-05-10T07:43:52.504Z,20.08
2023-05-10T07:46:20.478Z,19.86
2023-05-10T07:48:47.203Z,19.91
2023-05-10T07:51:13.816Z,19.58
2023-05-10T07:53:40.442Z,19.38
2023-05-10T07:56:30.668Z,19.51
2023-05-10T07:58:57.468Z,18.93
2023-05-10T08:01:24.307Z,18.51
2023-05-10T08:03:52.178Z,19.05
2023-05-10T08:06:19.419Z,19.08
2023-05-10T08:08:51.333Z,19.25
2023-05-10T08:11:18.574Z,18.49
2023-05-10T08:13:46.092Z,18.80
2023-05-10T08:16:12.881Z,18.73
2023-05-10T08:18:39.926Z,19.04
2023-05-10T08:21:06.666Z,18.58
2023-05-10T08:23:33.323Z,19.14
2023-05-10T08:26:00.482Z,19.01
2023-05-10T08:28:27.220Z,19.16
2023-05-10T08:30:53.841Z,19.07
2023-05-10T08:33:20.765Z,18.64
2023-05-10T08:35:47.561Z,19.69
2023-05-10T08:38:16.986Z,19.06
2023-05-10T08:40:44.532Z,19.33
2023-05-10T08:43:12.763Z,19.38
2023-05-10T08:45:42.529Z,19.38
2023-05-10T08:48:10.367Z,19.58
2023-05-10T08:50:40.917Z,19.69
2023-05-10T08:53:11.744Z,19.33
2023-05-10T08:55:39.700Z,20.14
2023-05-10T08:58:06.934Z,19.87
2023-05-10T09:00:33.769Z,20.31
2023-05-10T09:03:00.870Z,20.09
2023-05-10T09:05:27.712Z,20.18
2023-05-10T09:07:54.404Z,18.49
2023-05-10T09:10:21.440Z,19.52
2023-05-10T09:12:48.856Z,20.13
2023-05-10T09:15:21.043Z,19.71
2023-05-10T09:17:47.737Z,19.54
2023-05-10T09:20:14.806Z,19.89
2023-05-10T09:22:41.916Z,19.99
2023-05-10T09:25:09.115Z,19.55
2023-05-10T09:27:36.798Z,19.57
2023-05-10T09:30:04.547Z,19.48
2023-05-10T09:32:41.649Z,19.74
2023-05-10T09:35:12.971Z,19.51
2023-05-10T09:37:50.933Z,19.48
2023-05-10T09:40:25.283Z,19.68
2023-05-10T09:42:54.196Z,19.70
2023-05-10T09:45:21.108Z,19.49
2023-05-10T09:47:48.064Z,19.56
2023-05-10T09:50:14.706Z,18.98
2023-05-10T09:53:01.040Z,19.52
2023-05-10T09:55:42.589Z,19.20
2023-05-10T09:58:11.775Z,19.44
2023-05-10T10:00:42.997Z,19.40
2023-05-10T10:03:16.896Z,19.15
2023-05-10T10:05:44.584Z,19.58
2023-05-10T10:08:11.651Z,19.20
2023-05-10T10:10:39.825Z,19.08
2023-05-10T10:13:06.434Z,19.21
2023-05-10T10:15:34.004Z,19.73
2023-05-10T10:18:01.239Z,19.31
2023-05-10T10:20:28.852Z,19.57
2023-05-10T10:22:55.488Z,19.13
2023-05-10T10:25:24.984Z,19.43
2023-05-10T10:27:54.663Z,19.94
2023-05-10T10:30:44.883Z,19.68
2023-05-10T10:33:27.273Z,20.16
2023-05-10T10:35:54.504Z,20.21
2023-05-10T10:38:21.527Z,20.03
2023-05-10T10:41:35.894Z,20.23
2023-05-10T10:44:21.226Z,20.28
2023-05-10T10:47:26.090Z,20.41
2023-05-10T10:49:54.388Z,20.45
2023-05-10T10:52:34.500Z,20.47
2023-05-10T10:55:02.368Z,20.51
2023-05-10T10:57:31.377Z,19.58
2023-05-10T11:00:28.059Z,20.32
2023-05-10T11:03:09.720Z,20.39
2023-05-10T11:05:43.556Z,20.44
2023-05-10T11:08:27.100Z,20.39
2023-05-10T11:10:59.876Z,20.60
2023-05-10T11:13:41.465Z,20.60
2023-05-10T11:16:26.577Z,20.07
2023-05-10T11:19:04.040Z,19.79
2023-05-10T11:21:34.496Z,19.76
2023-05-10T11:24:01.915Z,19.88
2023-05-10T11:26:35.933Z,19.90
2023-05-10T11:29:03.106Z,19.55
2023-05-10T11:31:29.928Z,19.28
2023-05-10T11:33:57.979Z,18.95
2023-05-10T11:36:26.955Z,19.39
2023-05-10T11:38:53.759Z,19.28
2023-05-10T11:41:22.848Z,18.57
2023-05-10T11:43:55.465Z,18.89
2023-05-10T11:46:24.012Z,19.26
2023-05-10T11:48:52.022Z,19.11
2023-05-10T11:51:25.689Z,19.32
2023-05-10T11:53:54.176Z,19.35
2023-05-10T11:56:22.734Z,19.31
2023-05-10T11:58:57.035Z,19.07
2023-05-10T12:01:24.471Z,18.58
2023-05-10T12:03:51.586Z,18.76
2023-05-10T12:06:19.688Z,18.54
2023-05-10T12:08:53.636Z,18.43
2023-05-10T12:11:22.159Z,18.71
2023-05-10T12:13:49.041Z,18.80
2023-05-10T12:16:20.832Z,19.03
2023-05-10T12:18:54.559Z,19.43
2023-05-10T12:21:21.718Z,19.50
2023-05-10T12:23:53.891Z,19.28
2023-05-10T12:26:24.250Z,19.35
2023-05-10T12:28:50.894Z,18.96
2023-05-10T12:31:17.795Z,19.41
2023-05-10T12:33:44.675Z,18.50
2023-05-10T12:36:12.163Z,19.06
2023-05-10T12:38:40.115Z,18.69
2023-05-10T12:41:08.503Z,18.68
2023-05-10T12:43:35.425Z,18.69
2023-05-10T12:46:15.410Z,19.19
2023-05-10T12:48:42.817Z,17.31
2023-05-10T12:51:10.692Z,18.78
2023-05-10T12:53:37.775Z,18.80
2023-05-10T12:56:04.687Z,18.80
2023-05-10T12:58:35.964Z,17.98
2023-05-10T13:01:03.351Z,18.40
2023-05-10T13:03:30.157Z,18.27
2023-05-10T13:05:56.811Z,18.22
2023-05-10T13:08:23.484Z,18.86
2023-05-10T13:10:50.136Z,18.40
2023-05-10T13:13:16.811Z,18.03
2023-05-10T13:15:43.605Z,18.27
2023-05-10T13:18:10.711Z,18.39
2023-05-10T13:20:37.509Z,18.56
2023-05-10T13:23:04.178Z,18.36
2023-05-10T13:25:31.072Z,18.35
2023-05-10T13:27:57.780Z,18.53
2023-05-10T13:30:25.242Z,18.21
2023-05-10T13:32:51.907Z,18.54
2023-05-10T13:35:18.595Z,18.09
2023-05-10T13:37:45.264Z,18.50
2023-05-10T13:40:12.053Z,17.41
2023-05-10T13:42:38.721Z,18.71
2023-05-10T13:45:06.068Z,18.56
2023-05-10T13:47:32.799Z,18.02
2023-05-10T13:49:59.503Z,18.14
2023-05-10T13:52:26.941Z,18.46
2023-05-10T13:54:55.982Z,18.64
2023-05-10T13:57:23.208Z,18.72
2023-05-10T13:59:50.001Z,18.30
2023-05-10T14:02:16.694Z,18.13
2023-05-10T14:04:43.357Z,17.98
2023-05-10T14:07:10.064Z,17.88
2023-05-10T14:09:37.122Z,17.96
2023-05-10T14:12:03.911Z,17.52
2023-05-10T14:14:30.535Z,17.32
2023-05-10T14:16:57.254Z,17.44
2023-05-10T14:19:23.925Z,17.56
2023-05-10T14:21:50.539Z,17.51
2023-05-10T14:24:17.153Z,16.12
2023-05-10T14:26:43.770Z,17.48
2023-05-10T14:29:12.482Z,18.00
2023-05-10T14:31:39.593Z,17.99
2023-05-10T14:34:06.837Z,17.81
2023-05-10T14:36:33.655Z,18.05
2023-05-10T14:39:00.355Z,17.95
2023-05-10T14:41:27.048Z,17.76
2023-05-10T14:43:54.117Z,17.91
2023-05-10T14:46:20.909Z,18.15
2023-05-10T14:48:47.803Z,18.08
2023-05-10T14:51:14.688Z,16.74
2023-05-10T14:53:41.292Z,17.61
2023-05-10T14:56:08.113Z,17.68
2023-05-10T14:58:34.867Z,17.54
2023-05-10T15:01:01.984Z,17.66
2023-05-10T15:03:29.317Z,17.62
2023-05-10T15:05:58.645Z,17.00
2023-05-10T15:08:28.789Z,17.07
2023-05-10T15:10:56.930Z,16.45
2023-05-10T15:13:23.591Z,16.78
2023-05-10T15:15:50.270Z,16.76
2023-05-10T15:18:17.433Z,16.66
2023-05-10T15:20:44.178Z,17.03
2023-05-10T15:23:10.821Z,16.94
2023-05-10T15:25:38.507Z,15.55
2023-05-10T15:28:05.258Z,17.05
2023-05-10T15:30:32.041Z,17.30
2023-05-10T15:32:59.101Z,16.86
2023-05-10T15:35:27.082Z,16.71
2023-05-10T15:37:53.863Z,16.75
2023-05-10T15:40:20.620Z,16.96
2023-05-10T15:42:47.265Z,16.75
2023-05-10T15:45:13.952Z,16.71
2023-05-10T15:47:40.735Z,16.81
2023-05-10T15:50:08.397Z,16.28
2023-05-10T15:52:35.221Z,16.58
2023-05-10T15:55:01.889Z,16.69
2023-05-10T15:57:28.539Z,16.27
2023-05-10T15:59:56.361Z,16.72
2023-05-10T16:02:23.510Z,16.87
2023-05-10T16:04:50.369Z,15.65
2023-05-10T16:07:17.046Z,16.65
2023-05-10T16:09:44.090Z,16.58
2023-05-10T16:12:10.841Z,16.62
2023-05-10T16:14:37.456Z,16.33
2023-05-10T16:17:04.765Z,16.78
2023-05-10T16:19:32.909Z,16.47
2023-05-10T16:21:59.604Z,16.52
2023-05-10T16:24:26.384Z,16.45
2023-05-10T16:26:53.265Z,16.50
2023-05-10T16:29:19.873Z,16.62
2023-05-10T16:31:46.993Z,16.57
2023-05-10T16:34:13.684Z,16.74
2023-05-10T16:36:40.462Z,16.35
2023-05-10T16:39:07.103Z,15.19
2023-05-10T16:41:34.725Z,15.78
2023-05-10T16:44:01.966Z,16.36
2023-05-10T16:46:28.898Z,16.77
2023-05-10T16:48:56.049Z,16.58
2023-05-10T16:51:22.686Z,16.33
2023-05-10T16:53:49.783Z,16.17
2023-05-10T16:56:18.371Z,16.13
2023-05-10T16:58:44.970Z,16.48
2023-05-10T17:01:11.602Z,15.89
2023-05-10T17:03:38.405Z,15.65
2023-05-10T17:06:06.105Z,15.70
2023-05-10T17:08:33.453Z,15.96
2023-05-10T17:11:04.036Z,15.80
2023-05-10T17:13:30.728Z,15.58
2023-05-10T17:15:57.482Z,15.74
2023-05-10T17:18:24.249Z,15.21
2023-05-10T17:20:51.147Z,14.93
2023-05-10T17:23:17.767Z,14.81
2023-05-10T17:25:44.716Z,14.84
2023-05-10T17:28:11.471Z,14.70
2023-05-10T17:30:38.198Z,14.69
2023-05-10T17:33:05.068Z,13.60
2023-05-10T17:35:32.001Z,14.42
2023-05-10T17:37:58.693Z,14.00
2023-05-10T17:40:25.566Z,14.05
2023-05-10T17:42:52.625Z,13.57
2023-05-10T17:45:19.655Z,13.41
2023-05-10T17:47:46.566Z,13.57
2023-05-10T17:50:13.194Z,13.11
2023-05-10T17:52:39.952Z,12.88
2023-05-10T17:55:07.209Z,12.88
2023-05-10T17:57:34.104Z,12.13
2023-05-10T18:00:02.287Z,12.36
2023-05-10T18:02:29.083Z,12.27
2023-05-10T18:04:57.594Z,12.23
2023-05-10T18:07:27.189Z,12.24
2023-05-10T18:09:53.799Z,11.54
2023-05-10T18:12:20.451Z,12.51
2023-05-10T18:14:47.232Z,12.21
2023-05-10T18:17:13.875Z,12.56
2023-05-10T18:19:40.594Z,12.19
2023-05-10T18:22:10.512Z,10.34
2023-05-10T18:24:39.596Z,11.84
2023-05-10T18:27:08.274Z,11.78
2023-05-10T18:29:35.395Z,10.46
2023-05-10T18:32:02.111Z,11.61
2023-05-10T18:34:28.936Z,11.66
2023-05-10T18:36:55.898Z,11.54
2023-05-10T18:39:22.539Z,11.33
2023-05-10T18:41:50.401Z,11.44
2023-05-10T18:44:17.288Z,10.94
2023-05-10T18:46:44.055Z,9.29
2023-05-10T18:49:10.896Z,11.11
2023-05-10T18:51:37.536Z,11.45
2023-05-10T18:54:04.541Z,11.16
2023-05-10T18:56:31.542Z,11.14
2023-05-10T18:58:58.188Z,10.68
2023-05-10T19:01:24.920Z,10.86
2023-05-10T19:03:51.605Z,8.81
2023-05-10T19:06:18.442Z,10.55
2023-05-10T19:08:45.112Z,10.53
2023-05-10T19:11:12.102Z,10.46
2023-05-10T19:13:38.785Z,10.65
2023-05-10T19:16:13.694Z,10.14
2023-05-10T19:18:40.426Z,10.64
2023-05-10T19:21:09.846Z,10.33
2023-05-10T19:23:41.767Z,8.15
2023-05-10T19:26:10.926Z,10.01
2023-05-10T19:28:37.794Z,9.86
2023-05-10T19:31:06.053Z,9.66
2023-05-10T19:33:32.801Z,9.33
2023-05-10T19:35:59.666Z,9.49
2023-05-10T19:38:26.445Z,9.41
2023-05-10T19:40:58.147Z,9.58
2023-05-10T19:43:29.540Z,8.77
2023-05-10T19:46:00.686Z,9.25
2023-05-10T19:48:27.602Z,8.84
2023-05-10T19:50:54.497Z,9.34
2023-05-10T19:53:21.140Z,9.20
2023-05-10T19:55:48.710Z,9.17
2023-05-10T19:58:15.376Z,9.19
2023-05-10T20:00:42.040Z,9.28
2023-05-10T20:03:09.475Z,8.91
2023-05-10T20:05:36.190Z,8.63
2023-05-10T20:08:02.845Z,8.63
2023-05-10T20:10:29.597Z,8.43
2023-05-10T20:12:56.397Z,8.59
2023-05-10T20:15:23.334Z,7.66
2023-05-10T20:17:54.026Z,8.14
2023-05-10T20:20:21.416Z,7.84
2023-05-10T20:22:48.460Z,8.42
2023-05-10T20:25:16.505Z,8.61
2023-05-10T20:27:43.327Z,8.42
2023-05-10T20:30:10.520Z,8.29
2023-05-10T20:32:37.304Z,8.09
2023-05-10T20:35:04.335Z,8.19
2023-05-10T20:37:31.060Z,6.58
2023-05-10T20:39:57.687Z,7.97
2023-05-10T20:42:24.334Z,8.21
2023-05-10T20:44:51.124Z,8.24
2023-05-10T20:47:18.107Z,8.02
2023-05-10T20:49:44.744Z,8.17
2023-05-10T20:52:11.366Z,6.79
2023-05-10T20:54:38.061Z,7.95
2023-05-10T20:57:04.837Z,7.84
2023-05-10T20:59:31.420Z,8.19
2023-05-10T21:01:58.160Z,7.91
2023-05-10T21:04:25.933Z,8.13
2023-05-10T21:06:53.299Z,7.86
2023-05-10T21:09:20.029Z,7.91
2023-05-10T21:11:46.666Z,7.75
2023-05-10T21:14:13.510Z,7.98
2023-05-10T21:16:40.182Z,7.93
2023-05-10T21:19:07.588Z,7.27
2023-05-10T21:21:34.428Z,7.74
2023-05-10T21:24:01.086Z,8.22
2023-05-10T21:26:27.803Z,7.89
2023-05-10T21:28:54.664Z,7.74
2023-05-10T21:31:21.424Z,7.88
2023-05-10T21:33:48.154Z,7.67
2023-05-10T21:36:15.025Z,7.78
2023-05-10T21:38:44.289Z,7.52
2023-05-10T21:41:11.098Z,7.87
2023-05-10T21:43:37.759Z,7.13
2023-05-10T21:46:04.751Z,5.92
2023-05-10T21:48:31.461Z,7.33
2023-05-10T21:50:58.107Z,7.09
2023-05-10T21:53:24.726Z,7.17
2023-05-10T21:55:51.404Z,7.42
2023-05-10T21:58:18.155Z,6.98
2023-05-10T22:00:44.788Z,7.37
2023-05-10T22:03:11.615Z,7.43
2023-05-10T22:05:38.708Z,7.84
2023-05-10T22:08:06.227Z,7.54
2023-05-10T22:10:33.066Z,6.29
2023-05-10T22:13:00.202Z,7.71
2023-05-10T22:15:27.212Z,7.68
2023-05-10T22:17:54.181Z,7.32
2023-05-10T22:20:21.343Z,6.31
2023-05-10T22:22:47.970Z,7.37
2023-05-10T22:25:14.658Z,6.14
2023-05-10T22:27:41.475Z,6.35
2023-05-10T22:30:08.807Z,7.92
2023-05-10T22:32:35.500Z,7.43
2023-05-10T22:35:02.387Z,6.72
2023-05-10T22:37:28.983Z,7.03
2023-05-10T22:39:55.759Z,7.68
2023-05-10T22:42:22.356Z,6.80
2023-05-10T22:44:49.100Z,7.62
2023-05-10T22:47:16.501Z,7.52
2023-05-10T22:49:43.153Z,7.18
2023-05-10T22:52:09.855Z,7.24
2023-05-10T22:54:36.609Z,7.69
2023-05-10T22:57:03.244Z,7.86
2023-05-10T22:59:29.913Z,7.52
2023-05-10T23:01:56.755Z,6.63
2023-05-10T23:04:23.434Z,7.48
2023-05-10T23:06:50.032Z,6.75
2023-05-10T23:09:16.687Z,6.93
2023-05-10T23:11:43.304Z,7.54
2023-05-10T23:14:09.968Z,7.22
2023-05-10T23:16:36.818Z,7.86
2023-05-10T23:19:03.536Z,7.61
2023-05-10T23:21:32.221Z,7.85
2023-05-10T23:23:59.100Z,7.76
2023-05-10T23:26:25.750Z,7.92
2023-05-10T23:28:52.492Z,7.82
2023-05-10T23:31:19.266Z,8.01
2023-05-10T23:33:45.964Z,7.22
2023-05-10T23:36:12.562Z,7.62
2023-05-10T23:38:39.497Z,7.84
2023-05-10T23:41:06.248Z,7.33
2023-05-10T23:43:32.886Z,8.06
2023-05-10T23:45:59.677Z,7.59
2023-05-10T23:48:26.422Z,7.71
2023-05-10T23:50:53.134Z,7.37
2023-05-10T23:53:19.833Z,7.25
2023-05-10T23:55:46.462Z,7.59
2023-05-10T23:58:13.079Z,8.43
